Terminal Aerodrome Forecast
Issued by NWS Upton, NY

Home | Current Version | Previous Version | Text Only | Print | Product List | Glossary On
Versions: 1 2 3 4 5 6 7 8 9 10 11 12 13 14 15 16 17 18 19 20 21 22 23 24 25 26 27 28 29 30 31 32 33 34 35 36 37 38
000
FTUS41 KOKX 290221 CCA
TAFEWR
TAF COR
KEWR 290221Z 2902/3006 02008KT 6SM -RA BR OVC015
     FM290600 36005KT 5SM BR OVC020
     FM290800 34008KT P6SM BKN025
     FM291200 34010G17KT P6SM BKN050
     FM291500 34014G20KT P6SM SCT050 SCT250
     FM300000 33012KT P6SM FEW050 FEW250=

USA.gov is the U.S. government's official web portal to all federal, state and local government web resources and services.